Time;durP1;ratioP1;P1;durP2;ratioP2;P2;SDS_P1;SDS_P2;PMS_P1;PMS_P2;Temp;Humidity;BMP_temperature;BMP_pressure;BME280_temperature;BME280_humidity;BME280_pressure;Samples;Min_cycle;Max_cycle;Signal;HPM_P1;HPM_P2
2023/07/02 00:01:50;;;;;;;7.97;3.47;;;14.70;99.90;;;;;;6231698;23;20020;-86
2023/07/02 00:04:16;;;;;;;6.28;3.10;;;14.60;99.90;;;;;;6231602;23;20015;-86
2023/07/02 00:06:43;;;;;;;10.50;3.53;;;14.50;99.90;;;;;;6232477;23;20020;-87
2023/07/02 00:09:12;;;;;;;7.88;3.78;;;14.50;99.90;;;;;;6233135;23;20074;-87
2023/07/02 00:11:39;;;;;;;8.93;3.47;;;14.40;99.90;;;;;;6207629;23;20016;-86
2023/07/02 00:14:06;;;;;;;10.43;4.05;;;14.40;99.90;;;;;;6208033;23;20020;-86
2023/07/02 00:16:32;;;;;;;11.20;4.22;;;14.40;99.90;;;;;;6233659;23;20366;-85
2023/07/02 00:18:59;;;;;;;8.85;4.03;;;14.40;99.90;;;;;;6232570;23;20474;-87
2023/07/02 00:21:27;;;;;;;14.00;4.20;;;14.50;99.90;;;;;;6204869;23;20012;-87
2023/07/02 00:23:57;;;;;;;9.43;4.68;;;14.50;99.90;;;;;;6234067;23;20130;-86
2023/07/02 00:26:27;;;;;;;12.13;5.35;;;14.50;99.90;;;;;;6236024;23;20099;-87
2023/07/02 00:28:55;;;;;;;14.52;5.35;;;14.60;99.90;;;;;;6210305;23;20082;-85
2023/07/02 00:31:21;;;;;;;9.85;4.10;;;15.00;99.90;;;;;;6210295;23;20052;-85
2023/07/02 00:33:47;;;;;;;17.05;5.07;;;14.60;99.90;;;;;;6233297;23;20526;-86
2023/07/02 00:36:16;;;;;;;12.50;5.30;;;14.60;99.90;;;;;;6200709;23;20066;-87
2023/07/02 00:38:43;;;;;;;11.82;4.18;;;12.00;99.90;;;;;;6210521;23;20103;-85
2023/07/02 00:41:10;;;;;;;14.43;4.40;;;14.40;99.90;;;;;;6235121;23;20016;-86
2023/07/02 00:43:36;;;;;;;13.43;5.03;;;14.40;99.90;;;;;;6235916;23;20016;-86
2023/07/02 00:46:02;;;;;;;18.00;4.85;;;14.40;99.90;;;;;;6235021;23;20020;-85
2023/07/02 00:48:29;;;;;;;12.52;5.28;;;14.40;99.90;;;;;;6208859;23;20098;-86
2023/07/02 00:50:56;;;;;;;10.98;4.38;;;14.30;99.90;;;;;;6204780;23;20020;-86
2023/07/02 00:53:22;;;;;;;15.00;4.80;;;14.20;99.90;;;;;;6209777;23;20572;-86
2023/07/02 00:55:48;;;;;;;15.27;5.03;;;14.20;99.90;;;;;;6209780;23;20016;-85
2023/07/02 00:58:15;;;;;;;15.48;5.80;;;14.00;99.90;;;;;;6234467;23;20030;-85
2023/07/02 01:00:42;;;;;;;14.40;5.00;;;14.20;99.90;;;;;;6235593;23;20146;-85
2023/07/02 01:03:08;;;;;;;14.90;4.40;;;11.60;99.90;;;;;;6209443;23;20047;-86
2023/07/02 01:05:36;;;;;;;16.70;5.53;;;13.80;99.90;;;;;;6208500;23;20047;-86
2023/07/02 01:08:06;;;;;;;10.80;4.82;;;13.70;99.90;;;;;;6238907;23;20072;-88
2023/07/02 01:10:34;;;;;;;17.85;5.70;;;11.70;99.90;;;;;;6235988;23;20016;-85
2023/07/02 01:13:06;;;;;;;17.17;6.13;;;13.30;99.90;;;;;;6208131;23;20016;-85
2023/07/02 01:15:32;;;;;;;21.30;6.33;;;13.50;99.90;;;;;;6212462;23;20020;-86
2023/07/02 01:17:58;;;;;;;18.00;6.72;;;13.30;99.90;;;;;;6206984;23;20066;-85
2023/07/02 01:20:26;;;;;;;12.38;5.22;;;13.00;99.90;;;;;;6212234;23;20030;-85
2023/07/02 01:22:53;;;;;;;18.50;7.50;;;13.30;99.90;;;;;;6233016;23;20016;-85
2023/07/02 01:25:24;;;;;;;15.00;5.60;;;9.70;99.90;;;;;;6237094;23;20670;-86
2023/07/02 01:27:51;;;;;;;20.20;5.80;;;12.70;99.90;;;;;;6232900;23;20016;-86
2023/07/02 01:30:17;;;;;;;16.92;6.00;;;13.40;99.90;;;;;;6210721;23;20028;-86
2023/07/02 01:32:43;;;;;;;18.98;6.40;;;12.60;99.90;;;;;;6211179;23;20194;-86
2023/07/02 01:35:09;;;;;;;16.38;5.75;;;12.40;99.90;;;;;;6211487;23;20040;-86
2023/07/02 01:37:37;;;;;;;17.98;6.30;;;12.30;99.90;;;;;;6211259;23;20115;-86
2023/07/02 01:40:06;;;;;;;19.02;5.63;;;12.40;99.90;;;;;;6236296;23;20091;-86
2023/07/02 01:42:32;;;;;;;14.85;5.72;;;12.60;99.90;;;;;;6210021;23;20024;-87
2023/07/02 01:44:58;;;;;;;18.50;6.30;;;12.30;99.90;;;;;;6238079;23;20451;-85
2023/07/02 01:47:24;;;;;;;14.20;6.03;;;12.40;99.90;;;;;;6211107;23;20022;-85
2023/07/02 01:49:50;;;;;;;17.05;6.72;;;12.20;99.90;;;;;;6209845;23;20022;-86
2023/07/02 01:52:16;;;;;;;16.50;6.70;;;12.20;99.90;;;;;;6211859;23;20035;-86
2023/07/02 01:54:43;;;;;;;19.85;7.60;;;12.10;99.90;;;;;;6210193;23;20016;-86
2023/07/02 01:57:09;;;;;;;23.35;7.18;;;12.00;99.90;;;;;;6211591;23;20111;-87
2023/07/02 01:59:34;;;;;;;18.00;7.50;;;11.90;99.90;;;;;;6213603;23;20016;-85
2023/07/02 02:02:00;;;;;;;18.15;6.50;;;11.80;99.90;;;;;;6212901;23;20012;-86
2023/07/02 02:04:26;;;;;;;19.67;6.65;;;11.60;99.90;;;;;;6237321;23;20013;-86
2023/07/02 02:06:52;;;;;;;19.58;6.90;;;11.80;99.90;;;;;;6211211;23;20246;-86
2023/07/02 02:09:18;;;;;;;22.58;6.75;;;11.70;99.90;;;;;;6237673;23;20016;-86
2023/07/02 02:11:47;;;;;;;20.42;7.40;;;11.70;99.90;;;;;;6215114;23;20534;-86
2023/07/02 02:14:13;;;;;;;20.30;7.10;;;11.70;99.90;;;;;;6216133;23;20012;-86
2023/07/02 02:16:39;;;;;;;24.38;8.63;;;11.60;99.90;;;;;;6213236;23;20763;-87
2023/07/02 02:19:05;;;;;;;19.08;7.22;;;11.70;99.90;;;;;;6213235;23;20018;-86
2023/07/02 02:21:31;;;;;;;17.15;7.70;;;11.70;99.90;;;;;;6208901;23;20635;-85
2023/07/02 02:23:57;;;;;;;19.70;7.68;;;11.70;99.90;;;;;;6210287;23;20023;-85
2023/07/02 02:26:25;;;;;;;18.67;7.07;;;11.70;99.90;;;;;;6212532;23;20016;-85
2023/07/02 02:28:51;;;;;;;18.15;7.07;;;11.70;99.90;;;;;;6210363;23;20026;-87
2023/07/02 02:31:17;;;;;;;17.00;6.97;;;11.60;99.90;;;;;;6212185;23;20506;-87
2023/07/02 02:33:43;;;;;;;20.60;8.23;;;11.50;99.90;;;;;;6237682;23;20048;-87
2023/07/02 02:36:08;;;;;;;18.02;8.80;;;11.40;99.90;;;;;;6210475;23;20091;-87
2023/07/02 02:38:34;;;;;;;25.63;9.15;;;11.30;99.90;;;;;;6237931;23;20019;-87
2023/07/02 02:41:02;;;;;;;23.45;7.35;;;11.20;99.90;;;;;;6212622;23;20016;-86
2023/07/02 02:43:27;;;;;;;19.63;6.75;;;11.10;99.90;;;;;;6214319;23;20012;-87
2023/07/02 02:45:53;;;;;;;20.45;7.38;;;11.10;99.90;;;;;;6236806;23;20051;-87
2023/07/02 02:48:19;;;;;;;20.35;7.43;;;11.00;99.90;;;;;;6211260;23;20012;-87
2023/07/02 02:50:45;;;;;;;23.38;8.10;;;10.90;99.90;;;;;;6212373;23;20022;-86
2023/07/02 02:53:11;;;;;;;23.05;8.15;;;10.90;99.90;;;;;;6211937;23;20028;-87
2023/07/02 02:55:37;;;;;;;21.38;7.47;;;10.80;99.90;;;;;;6210496;23;20027;-87
2023/07/02 02:58:03;;;;;;;23.85;7.30;;;10.80;99.90;;;;;;6213064;23;20031;-87
2023/07/02 03:00:29;;;;;;;28.35;7.55;;;10.80;99.90;;;;;;6236592;23;20023;-87
2023/07/02 03:02:55;;;;;;;21.05;7.88;;;10.80;99.90;;;;;;6211705;23;20012;-87
2023/07/02 03:05:24;;;;;;;24.45;8.40;;;10.80;99.90;;;;;;6238011;23;20026;-88
2023/07/02 03:07:51;;;;;;;19.92;7.85;;;10.80;99.90;;;;;;6211784;23;20016;-87
2023/07/02 03:10:17;;;;;;;18.98;8.38;;;10.80;99.90;;;;;;6232778;23;20055;-86
2023/07/02 03:12:43;;;;;;;18.13;8.73;;;10.70;99.90;;;;;;6237500;23;20074;-86
2023/07/02 03:15:09;;;;;;;21.77;7.95;;;10.80;99.90;;;;;;6212489;23;20016;-87
2023/07/02 03:17:35;;;;;;;27.25;8.38;;;10.80;99.90;;;;;;6238330;23;20016;-88
2023/07/02 03:20:03;;;;;;;21.13;8.00;;;10.80;99.90;;;;;;6211778;23;20016;-88
2023/07/02 03:22:29;;;;;;;26.00;10.25;;;10.80;99.90;;;;;;6211260;23;20354;-87
2023/07/02 03:24:55;;;;;;;23.83;8.13;;;10.80;99.90;;;;;;6231201;23;20016;-87
2023/07/02 03:27:21;;;;;;;23.02;8.23;;;10.90;99.90;;;;;;6212355;23;20070;-87
2023/07/02 03:29:47;;;;;;;24.00;8.52;;;10.90;99.90;;;;;;6213979;23;20490;-87
2023/07/02 03:32:12;;;;;;;26.67;8.77;;;11.00;99.90;;;;;;6238505;23;20084;-88
2023/07/02 03:34:38;;;;;;;23.02;9.25;;;10.90;99.90;;;;;;6213790;23;20054;-86
2023/07/02 03:37:04;;;;;;;23.75;8.75;;;10.90;99.90;;;;;;6239119;23;20016;-86
2023/07/02 03:39:30;;;;;;;26.08;9.48;;;10.90;99.90;;;;;;6235975;23;20015;-86
2023/07/02 03:41:55;;;;;;;23.48;9.15;;;11.00;99.90;;;;;;6238226;23;20012;-86
2023/07/02 03:44:21;;;;;;;25.63;9.07;;;11.10;99.90;;;;;;6212334;23;20471;-87
2023/07/02 03:46:47;;;;;;;26.50;9.07;;;11.10;99.90;;;;;;6212896;23;20024;-86
2023/07/02 03:49:13;;;;;;;23.05;8.65;;;11.20;99.90;;;;;;6212760;23;20015;-86
2023/07/02 03:51:38;;;;;;;23.02;8.85;;;11.30;99.90;;;;;;6212857;23;20023;-86
2023/07/02 03:54:04;;;;;;;28.42;8.75;;;11.40;99.90;;;;;;6208878;23;20024;-88
2023/07/02 03:56:30;;;;;;;24.02;9.18;;;11.60;99.90;;;;;;6213010;23;20020;-87
2023/07/02 03:58:56;;;;;;;23.55;8.10;;;11.60;99.90;;;;;;6214246;23;20048;-85
2023/07/02 04:01:21;;;;;;;27.88;9.80;;;11.70;99.90;;;;;;6215786;23;20499;-86
2023/07/02 04:03:49;;;;;;;28.08;7.95;;;11.70;99.90;;;;;;6239952;23;20020;-86
2023/07/02 04:06:15;;;;;;;29.02;8.43;;;11.90;99.90;;;;;;6214370;23;20059;-88
2023/07/02 04:08:41;;;;;;;26.95;8.95;;;12.00;99.90;;;;;;6235931;23;20020;-86
2023/07/02 04:11:07;;;;;;;26.30;8.73;;;12.20;99.90;;;;;;6240117;23;20098;-87
2023/07/02 04:13:32;;;;;;;25.70;8.93;;;12.40;99.90;;;;;;6214796;23;20016;-86
2023/07/02 04:15:58;;;;;;;27.88;11.38;;;12.50;99.90;;;;;;6238658;23;20047;-88
2023/07/02 04:18:24;;;;;;;22.80;8.95;;;12.60;99.90;;;;;;6213981;23;20016;-87
2023/07/02 04:20:49;;;;;;;25.85;8.02;;;12.80;99.90;;;;;;6215228;23;20012;-87
2023/07/02 04:23:16;;;;;;;25.75;8.30;;;13.00;99.90;;;;;;6241468;23;20019;-86
2023/07/02 04:25:41;;;;;;;21.50;8.15;;;13.40;99.90;;;;;;6215768;23;20020;-86
2023/07/02 04:28:07;;;;;;;19.52;8.07;;;13.80;99.90;;;;;;6214898;23;20020;-86
2023/07/02 04:30:34;;;;;;;23.88;7.80;;;14.20;99.90;;;;;;6215136;23;20789;-87
2023/07/02 04:33:00;;;;;;;21.20;7.20;;;14.70;99.90;;;;;;6237609;23;20095;-87
2023/07/02 04:35:25;;;;;;;17.88;7.30;;;15.10;99.90;;;;;;6239455;23;20051;-87
2023/07/02 04:37:51;;;;;;;22.08;8.05;;;15.50;99.90;;;;;;6216043;23;20050;-88
2023/07/02 04:40:17;;;;;;;22.23;7.35;;;16.00;99.90;;;;;;6240568;23;20836;-87
2023/07/02 04:42:46;;;;;;;26.92;8.32;;;16.50;99.90;;;;;;6239943;23;20097;-88
2023/07/02 04:45:15;;;;;;;19.02;7.80;;;16.90;99.90;;;;;;6213180;23;20020;-87
2023/07/02 04:47:42;;;;;;;23.45;8.27;;;16.80;99.90;;;;;;6214932;23;20016;-88
2023/07/02 04:50:08;;;;;;;19.00;5.65;;;16.50;99.90;;;;;;6212242;23;20023;-88
2023/07/02 04:52:34;;;;;;;19.05;6.75;;;16.30;99.90;;;;;;6213143;23;20016;-87
2023/07/02 04:54:59;;;;;;;19.33;6.82;;;16.20;99.90;;;;;;6212432;23;20097;-87
2023/07/02 04:57:25;;;;;;;21.20;7.93;;;16.10;99.90;;;;;;6215126;23;20092;-88
2023/07/02 04:59:51;;;;;;;16.95;6.30;;;16.10;99.90;;;;;;6214293;23;20016;-86
2023/07/02 05:02:17;;;;;;;20.95;8.00;;;16.10;99.90;;;;;;6213295;23;20655;-87
2023/07/02 05:04:42;;;;;;;23.10;8.10;;;16.10;99.90;;;;;;6214465;23;20650;-87
2023/07/02 05:07:08;;;;;;;24.13;6.93;;;16.20;99.90;;;;;;6214980;23;20066;-89
2023/07/02 05:09:34;;;;;;;19.30;7.50;;;16.70;99.70;;;;;;6210084;23;20016;-85
2023/07/02 05:11:59;;;;;;;21.17;7.35;;;17.70;98.80;;;;;;6212814;23;20451;-87
2023/07/02 05:14:25;;;;;;;17.30;7.97;;;18.30;97.60;;;;;;6213338;23;20012;-89
2023/07/02 05:16:51;;;;;;;19.63;7.88;;;18.20;97.20;;;;;;6239343;23;20016;-87
2023/07/02 05:19:16;;;;;;;16.25;5.82;;;17.80;97.00;;;;;;6213088;23;20899;-87
2023/07/02 05:21:42;;;;;;;18.50;6.50;;;18.10;97.00;;;;;;6239142;23;20046;-88
2023/07/02 05:24:08;;;;;;;22.30;7.43;;;17.70;96.90;;;;;;6234257;23;20012;-85
2023/07/02 05:26:35;;;;;;;16.88;7.00;;;17.60;97.00;;;;;;6213117;23;20127;-87
2023/07/02 05:29:01;;;;;;;21.95;7.93;;;17.80;96.50;;;;;;6214240;23;20016;-87
2023/07/02 05:31:27;;;;;;;20.33;6.75;;;17.90;96.30;;;;;;6217638;23;20050;-87
2023/07/02 05:33:54;;;;;;;18.27;6.07;;;17.70;96.30;;;;;;6215909;23;20016;-86
2023/07/02 05:36:20;;;;;;;17.83;6.43;;;17.50;96.40;;;;;;6214278;23;20016;-86
2023/07/02 05:38:46;;;;;;;17.25;6.13;;;17.40;96.30;;;;;;6209042;23;20023;-86
2023/07/02 05:41:21;;;;;;;18.58;6.65;;;17.40;96.40;;;;;;6212000;23;20012;-85
2023/07/02 05:43:47;;;;;;;19.88;6.90;;;17.40;96.20;;;;;;6236870;23;20016;-85
2023/07/02 05:46:14;;;;;;;20.02;6.88;;;17.50;96.30;;;;;;6211749;23;20019;-84
2023/07/02 05:48:40;;;;;;;21.38;6.60;;;17.80;96.10;;;;;;6238299;23;20016;-83
2023/07/02 05:51:07;;;;;;;21.30;6.70;;;19.00;95.10;;;;;;6238829;23;20070;-85
2023/07/02 05:53:33;;;;;;;22.33;6.50;;;20.60;93.80;;;;;;6207691;23;20027;-85
2023/07/02 05:55:58;;;;;;;15.88;6.15;;;22.50;93.80;;;;;;6236112;23;20379;-85
2023/07/02 05:58:24;;;;;;;19.10;5.95;;;23.40;99.90;;;;;;6212360;23;20023;-85
2023/07/02 06:00:50;;;;;;;17.35;5.72;;;25.30;87.30;;;;;;6235962;23;20068;-86
2023/07/02 06:03:19;;;;;;;20.25;6.50;;;25.30;83.60;;;;;;6210893;23;20444;-84
2023/07/02 06:05:49;;;;;;;15.35;6.40;;;25.50;80.50;;;;;;6236080;23;20760;-85
2023/07/02 06:08:16;;;;;;;15.70;5.53;;;26.60;76.80;;;;;;6232541;23;20081;-85
2023/07/02 06:10:42;;;;;;;14.40;5.57;;;27.50;73.70;;;;;;6233894;23;20016;-86
2023/07/02 06:13:07;;;;;;;14.25;5.68;;;28.30;71.30;;;;;;6210469;23;20066;-85
2023/07/02 06:15:33;;;;;;;14.45;5.35;;;28.70;70.50;;;;;;6210083;23;20343;-85
2023/07/02 06:17:59;;;;;;;16.23;5.70;;;28.40;68.40;;;;;;6234084;23;20016;-84
2023/07/02 06:20:25;;;;;;;15.77;5.35;;;27.80;68.70;;;;;;6236370;23;20077;-85
2023/07/02 06:22:50;;;;;;;15.82;5.38;;;27.10;69.20;;;;;;6207164;23;20012;-87
2023/07/02 06:25:25;;;;;;;16.02;5.40;;;25.80;70.10;;;;;;6212594;23;20019;-88
2023/07/02 06:28:06;;;;;;;15.95;6.00;;;25.20;69.60;;;;;;6210609;23;20489;-86
2023/07/02 06:30:32;;;;;;;16.33;5.60;;;24.40;70.00;;;;;;6232562;22;20058;-87
2023/07/02 06:33:11;;;;;;;14.35;4.90;;;24.30;71.60;;;;;;6201198;23;20023;-86
2023/07/02 06:35:37;;;;;;;11.15;4.82;;;26.80;73.80;;;;;;6196650;23;20023;-86
2023/07/02 06:38:03;;;;;;;10.05;4.78;;;25.00;73.10;;;;;;6213897;23;20019;-86
2023/07/02 06:40:29;;;;;;;15.82;4.57;;;25.70;69.80;;;;;;6214206;23;20386;-87
2023/07/02 06:42:55;;;;;;;13.95;4.68;;;25.90;69.50;;;;;;6212605;23;20015;-85
2023/07/02 06:45:20;;;;;;;12.95;4.95;;;25.70;69.40;;;;;;6210544;23;20038;-85
2023/07/02 06:47:46;;;;;;;10.63;4.30;;;25.80;70.90;;;;;;6231610;23;20470;-86
2023/07/02 06:50:12;;;;;;;9.65;3.97;;;27.30;68.40;;;;;;6210159;23;20155;-85
2023/07/02 06:52:38;;;;;;;8.90;4.50;;;29.20;67.80;;;;;;6209692;23;20028;-86
2023/07/02 06:55:04;;;;;;;12.07;5.07;;;29.00;65.00;;;;;;6210574;23;20015;-86
2023/07/02 06:57:30;;;;;;;9.77;4.70;;;29.40;61.80;;;;;;6206747;23;20012;-86
2023/07/02 07:00:00;;;;;;;12.50;4.60;;;29.80;60.00;;;;;;6211337;23;20473;-85
2023/07/02 07:02:26;;;;;;;11.10;4.53;;;29.60;58.40;;;;;;6211088;23;20016;-85
2023/07/02 07:04:52;;;;;;;13.82;4.75;;;29.20;58.50;;;;;;6212649;23;20012;-85
2023/07/02 07:07:18;;;;;;;12.38;4.60;;;29.70;57.50;;;;;;6213846;23;20067;-85
2023/07/02 07:09:44;;;;;;;9.48;4.18;;;29.90;56.60;;;;;;6210927;23;20095;-85
2023/07/02 07:12:10;;;;;;;14.02;4.53;;;29.80;59.30;;;;;;6212334;23;20023;-85
2023/07/02 07:14:36;;;;;;;9.27;4.05;;;30.70;59.90;;;;;;6237145;23;20402;-85
2023/07/02 07:17:02;;;;;;;10.93;4.00;;;30.20;57.10;;;;;;6237511;23;20091;-84
2023/07/02 07:19:28;;;;;;;8.25;4.22;;;29.20;56.20;;;;;;6211083;23;20020;-85
2023/07/02 07:21:54;;;;;;;12.73;4.38;;;29.10;56.50;;;;;;6236579;23;20023;-85
2023/07/02 07:24:19;;;;;;;13.07;3.90;;;29.90;56.40;;;;;;6211721;23;20023;-86
2023/07/02 07:26:45;;;;;;;9.57;3.47;;;29.40;55.80;;;;;;6235768;23;20012;-85
2023/07/02 07:29:11;;;;;;;11.18;3.35;;;29.70;54.60;;;;;;6208846;23;20016;-84
2023/07/02 07:31:37;;;;;;;12.30;3.72;;;29.50;55.10;;;;;;6209208;23;20039;-83
2023/07/02 07:34:03;;;;;;;7.95;2.83;;;29.10;55.10;;;;;;6203953;23;20024;-84
2023/07/02 07:36:28;;;;;;;7.68;3.03;;;29.60;56.80;;;;;;6230741;23;20111;-84
2023/07/02 07:38:57;;;;;;;7.20;2.58;;;30.30;56.40;;;;;;6234735;23;20499;-84
2023/07/02 07:41:23;;;;;;;12.63;3.10;;;30.50;56.10;;;;;;6208657;23;20092;-84
2023/07/02 07:43:49;;;;;;;7.80;2.75;;;30.40;53.40;;;;;;6210539;23;20048;-84
2023/07/02 07:46:15;;;;;;;5.47;2.15;;;30.50;54.00;;;;;;6209901;23;20020;-83
2023/07/02 07:48:40;;;;;;;6.32;1.70;;;30.50;53.50;;;;;;6208697;23;20016;-86
2023/07/02 07:51:06;;;;;;;6.80;1.65;;;31.20;51.90;;;;;;6209483;23;20159;-83
2023/07/02 07:53:32;;;;;;;6.30;2.05;;;31.90;50.90;;;;;;6234197;23;20024;-85
2023/07/02 07:55:58;;;;;;;6.32;2.00;;;32.80;50.50;;;;;;6235197;23;20016;-85
2023/07/02 07:58:24;;;;;;;5.68;1.90;;;33.30;48.90;;;;;;6234435;23;20071;-85
2023/07/02 08:00:50;;;;;;;6.85;2.08;;;33.80;48.90;;;;;;6207623;23;20640;-87
2023/07/02 08:03:15;;;;;;;8.05;2.13;;;33.30;49.40;;;;;;6210227;23;20020;-84
2023/07/02 08:05:41;;;;;;;6.03;1.83;;;32.10;49.00;;;;;;6209358;23;20012;-84
2023/07/02 08:08:08;;;;;;;8.38;2.38;;;30.60;49.70;;;;;;6234662;23;20447;-86
2023/07/02 08:10:34;;;;;;;7.65;1.70;;;29.00;50.60;;;;;;6205218;23;20048;-85
2023/07/02 08:12:59;;;;;;;6.53;1.75;;;27.40;51.70;;;;;;6234004;23;20446;-85
2023/07/02 08:15:25;;;;;;;7.72;1.55;;;26.10;53.20;;;;;;6209409;23;20074;-84
2023/07/02 08:17:54;;;;;;;5.28;1.35;;;25.00;55.00;;;;;;6234649;23;20577;-84
2023/07/02 08:20:19;;;;;;;6.50;1.55;;;24.20;56.90;;;;;;6210354;23;20048;-84
2023/07/02 08:22:51;;;;;;;7.28;1.70;;;23.30;58.10;;;;;;6210207;23;20016;-84
2023/07/02 08:25:17;;;;;;;5.63;1.75;;;21.70;58.20;;;;;;6210155;23;20095;-84
2023/07/02 08:27:44;;;;;;;7.25;1.88;;;23.90;59.50;;;;;;6209197;23;20024;-83
2023/07/02 08:30:10;;;;;;;9.30;2.00;;;25.30;59.40;;;;;;6208963;23;20074;-85
2023/07/02 08:32:36;;;;;;;8.70;2.13;;;26.90;56.90;;;;;;6234147;23;20020;-85
2023/07/02 08:35:02;;;;;;;6.85;1.70;;;28.40;55.00;;;;;;6234275;23;20062;-85
2023/07/02 08:37:27;;;;;;;7.85;1.75;;;28.80;54.40;;;;;;6232528;23;20463;-84
2023/07/02 08:39:53;;;;;;;9.73;2.20;;;27.40;54.10;;;;;;6209804;23;20058;-84
2023/07/02 08:42:19;;;;;;;6.63;1.85;;;28.20;56.20;;;;;;6210296;23;20016;-86
2023/07/02 08:44:47;;;;;;;6.22;2.10;;;25.40;56.20;;;;;;6212549;23;20031;-85
2023/07/02 08:47:13;;;;;;;8.63;2.08;;;24.20;57.40;;;;;;6215771;23;20462;-86
2023/07/02 08:49:41;;;;;;;6.88;1.77;;;23.60;59.50;;;;;;6214239;23;20016;-84
2023/07/02 08:52:07;;;;;;;7.40;1.95;;;23.70;60.30;;;;;;6236685;23;20081;-87
2023/07/02 08:54:33;;;;;;;11.18;2.17;;;23.70;60.30;;;;;;6211339;23;20020;-86
2023/07/02 08:57:01;;;;;;;6.60;1.77;;;23.20;60.50;;;;;;6236419;23;20022;-86
2023/07/02 08:59:26;;;;;;;8.98;2.25;;;22.50;61.70;;;;;;6211035;23;20020;-86
2023/07/02 09:01:53;;;;;;;7.15;1.73;;;21.90;62.50;;;;;;6235831;23;20012;-85
2023/07/02 09:04:20;;;;;;;9.35;2.53;;;21.50;63.80;;;;;;6210788;23;20016;-85
2023/07/02 09:06:47;;;;;;;7.63;2.17;;;21.10;64.50;;;;;;6235959;23;20016;-84
2023/07/02 09:09:13;;;;;;;9.93;2.42;;;21.30;66.40;;;;;;6211993;23;20016;-85
2023/07/02 09:11:51;;;;;;;8.32;2.50;;;22.80;65.30;;;;;;6236660;23;20047;-85
2023/07/02 09:14:28;;;;;;;11.00;2.40;;;24.80;64.20;;;;;;6238593;23;20016;-84
2023/07/02 09:17:10;;;;;;;8.90;3.10;;;26.20;61.40;;;;;;6205770;23;20016;-85
2023/07/02 09:19:48;;;;;;;11.27;2.70;;;27.30;60.30;;;;;;6236513;23;20034;-85
2023/07/02 09:22:15;;;;;;;10.88;2.38;;;27.20;57.40;;;;;;6236912;23;20016;-85
2023/07/02 09:24:41;;;;;;;11.82;2.67;;;26.20;56.90;;;;;;6211842;23;20519;-85
2023/07/02 09:27:07;;;;;;;11.60;2.20;;;25.10;58.40;;;;;;6212257;23;20372;-84
2023/07/02 09:29:33;;;;;;;12.10;2.75;;;25.20;60.60;;;;;;6210623;23;20129;-85
2023/07/02 09:32:01;;;;;;;7.70;2.60;;;25.50;59.40;;;;;;6237206;23;20123;-85
2023/07/02 09:34:34;;;;;;;14.43;3.33;;;24.80;59.60;;;;;;6212555;23;20062;-86
2023/07/02 09:37:01;;;;;;;9.10;2.72;;;23.90;59.70;;;;;;6235687;23;20016;-85
2023/07/02 09:39:29;;;;;;;7.82;2.58;;;22.90;61.50;;;;;;6210595;23;20109;-85
2023/07/02 09:41:59;;;;;;;10.10;3.47;;;22.20;63.20;;;;;;6211924;23;20016;-85
2023/07/02 09:44:30;;;;;;;7.95;2.72;;;21.70;65.10;;;;;;6236790;23;20436;-84
2023/07/02 09:47:07;;;;;;;7.45;2.70;;;21.40;66.90;;;;;;6210553;23;20772;-85
2023/07/02 09:49:36;;;;;;;9.38;3.00;;;21.50;67.50;;;;;;6235912;23;20070;-84
2023/07/02 09:52:07;;;;;;;12.35;3.40;;;20.60;68.10;;;;;;6210598;23;20024;-85
2023/07/02 09:54:33;;;;;;;11.05;2.70;;;20.20;68.90;;;;;;6233488;23;20016;-85
2023/07/02 09:56:59;;;;;;;11.73;2.97;;;20.00;69.90;;;;;;6209462;23;20012;-85
2023/07/02 09:59:26;;;;;;;9.52;2.70;;;20.00;70.90;;;;;;6211706;23;20023;-86
2023/07/02 10:01:52;;;;;;;10.75;2.50;;;19.80;71.10;;;;;;6237368;23;20490;-84
2023/07/02 10:04:19;;;;;;;10.25;3.15;;;19.70;71.50;;;;;;6213432;23;20067;-85
2023/07/02 10:06:51;;;;;;;7.32;2.20;;;19.70;71.80;;;;;;6213573;23;20035;-86
2023/07/02 10:09:17;;;;;;;17.15;2.75;;;20.10;72.50;;;;;;6212935;23;20016;-86
2023/07/02 10:11:44;;;;;;;11.38;2.60;;;20.80;71.50;;;;;;6213030;23;20022;-83
2023/07/02 10:14:10;;;;;;;9.68;2.58;;;21.70;70.90;;;;;;6207563;23;20465;-84
2023/07/02 10:16:49;;;;;;;8.02;2.35;;;23.00;70.10;;;;;;6213421;23;20024;-82
2023/07/02 10:19:15;;;;;;;10.55;3.42;;;24.20;68.00;;;;;;6213311;23;20603;-82
2023/07/02 10:21:40;;;;;;;9.30;2.20;;;24.10;65.80;;;;;;6211028;23;20016;-85
2023/07/02 10:24:14;;;;;;;10.90;2.80;;;25.30;66.00;;;;;;6239219;23;20055;-86
2023/07/02 10:26:55;;;;;;;11.45;2.58;;;24.90;63.90;;;;;;6214445;23;20122;-85
2023/07/02 10:29:25;;;;;;;10.37;2.57;;;25.90;63.30;;;;;;6214362;23;20113;-85
2023/07/02 10:31:52;;;;;;;11.68;2.35;;;25.30;63.40;;;;;;6213537;23;20083;-87
2023/07/02 10:34:35;;;;;;;8.27;2.03;;;24.50;63.10;;;;;;6215933;23;20027;-85
2023/07/02 10:37:02;;;;;;;6.97;2.08;;;23.60;63.30;;;;;;6238017;23;20157;-85
2023/07/02 10:39:32;;;;;;;6.95;2.10;;;23.10;65.30;;;;;;6210524;23;20012;-86
2023/07/02 10:42:05;;;;;;;9.10;2.33;;;23.60;66.70;;;;;;6233101;23;20024;-89
2023/07/02 10:44:31;;;;;;;13.25;3.78;;;24.00;65.90;;;;;;6208436;23;20109;-85
2023/07/02 10:46:58;;;;;;;9.60;2.10;;;23.90;65.10;;;;;;6207634;23;20468;-85
2023/07/02 10:49:31;;;;;;;10.43;2.17;;;23.40;64.90;;;;;;6208384;23;20387;-86
2023/07/02 10:52:03;;;;;;;12.13;3.53;;;22.80;64.20;;;;;;6229799;23;20755;-88
2023/07/02 10:54:58;;;;;;;11.70;2.25;;;22.30;64.40;;;;;;6209836;23;20024;-88
2023/07/02 10:57:27;;;;;;;7.03;1.92;;;21.70;66.00;;;;;;6190146;23;20039;-89
2023/07/02 11:00:02;;;;;;;9.40;2.17;;;21.30;67.50;;;;;;6239115;23;20072;-86
2023/07/02 11:02:38;;;;;;;6.65;2.67;;;21.20;67.90;;;;;;6212833;23;20391;-85
2023/07/02 11:05:12;;;;;;;6.25;1.63;;;19.40;67.80;;;;;;6210851;23;20089;-90
2023/07/02 11:07:39;;;;;;;5.38;1.27;;;21.20;71.00;;;;;;6213576;23;20153;-90
2023/07/02 11:10:06;;;;;;;10.95;2.10;;;21.40;70.20;;;;;;6214655;23;20012;-89
2023/07/02 11:12:32;;;;;;;7.55;1.92;;;21.50;69.20;;;;;;6213194;23;20055;-89
2023/07/02 11:15:12;;;;;;;10.27;1.77;;;21.50;72.60;;;;;;6209930;23;20019;-88
2023/07/02 11:17:40;;;;;;;5.72;1.52;;;21.70;69.40;;;;;;6215504;23;20016;-86
2023/07/02 11:20:10;;;;;;;12.45;2.15;;;21.80;68.40;;;;;;6215409;23;20016;-89
2023/07/02 11:22:37;;;;;;;11.10;1.80;;;21.70;66.50;;;;;;6210094;23;20447;-87
2023/07/02 11:25:17;;;;;;;7.72;2.22;;;21.60;67.80;;;;;;6211839;23;20551;-85
2023/07/02 11:27:43;;;;;;;3.97;1.52;;;21.60;66.10;;;;;;6214850;23;20012;-88
2023/07/02 11:30:10;;;;;;;9.18;2.17;;;21.40;68.90;;;;;;6213044;23;20074;-87
2023/07/02 11:32:50;;;;;;;10.88;2.83;;;21.30;67.50;;;;;;6214148;23;20547;-88
2023/07/02 11:35:16;;;;;;;7.53;1.65;;;21.40;69.30;;;;;;6212297;23;20012;-89
2023/07/02 11:37:42;;;;;;;9.23;2.33;;;21.40;72.20;;;;;;6208686;23;20043;-89
2023/07/02 11:40:08;;;;;;;10.13;2.33;;;21.50;70.40;;;;;;6238651;23;20020;-89
2023/07/02 11:42:34;;;;;;;7.60;1.98;;;21.70;71.10;;;;;;6214370;23;20016;-89
2023/07/02 11:45:00;;;;;;;5.60;2.00;;;21.90;70.40;;;;;;6212135;23;20023;-87
2023/07/02 11:47:27;;;;;;;6.10;1.60;;;21.90;69.00;;;;;;6214458;23;20016;-89
2023/07/02 11:49:54;;;;;;;4.95;1.48;;;21.90;68.10;;;;;;6213780;23;20016;-89
2023/07/02 11:52:21;;;;;;;7.90;1.92;;;21.80;68.20;;;;;;6210859;23;20020;-89
2023/07/02 11:54:48;;;;;;;8.38;1.52;;;22.00;67.70;;;;;;6214945;23;20016;-89
2023/07/02 11:57:17;;;;;;;8.70;1.80;;;21.50;68.50;;;;;;6214211;23;20093;-90
2023/07/02 11:59:46;;;;;;;10.25;2.30;;;21.80;72.60;;;;;;6238880;23;20012;-91
2023/07/02 12:02:20;;;;;;;5.80;2.13;;;22.30;72.50;;;;;;6213733;23;20017;-87
2023/07/02 12:04:46;;;;;;;5.97;1.90;;;22.50;70.20;;;;;;6216334;23;20050;-90
2023/07/02 12:07:13;;;;;;;7.22;1.30;;;22.00;69.60;;;;;;6211248;23;20369;-92
2023/07/02 12:09:39;;;;;;;10.23;1.85;;;22.30;71.30;;;;;;6214511;23;20024;-91
2023/07/02 12:12:05;;;;;;;7.65;1.45;;;22.00;71.20;;;;;;6238953;22;20077;-89
2023/07/02 12:14:37;;;;;;;9.32;2.30;;;21.50;69.70;;;;;;6214807;23;20467;-86
2023/07/02 12:17:05;;;;;;;8.63;1.58;;;21.50;67.50;;;;;;6213623;23;20019;-89
2023/07/02 12:19:34;;;;;;;6.80;1.35;;;21.30;69.40;;;;;;6216178;23;20012;-88
2023/07/02 12:21:59;;;;;;;9.23;1.30;;;21.50;71.10;;;;;;6219688;23;20614;-89
2023/07/02 12:24:25;;;;;;;6.32;1.58;;;22.30;71.50;;;;;;6216271;23;20054;-92
2023/07/02 12:26:51;;;;;;;9.43;2.28;;;22.20;73.00;;;;;;6218666;23;20012;-87
2023/07/02 12:29:17;;;;;;;7.90;1.55;;;22.60;71.90;;;;;;6218368;23;20134;-91
2023/07/02 12:31:43;;;;;;;8.85;1.52;;;22.00;76.40;;;;;;6216773;23;20022;-90
2023/07/02 12:34:15;;;;;;;8.57;1.85;;;21.90;73.90;;;;;;6219069;23;20386;-89
2023/07/02 12:36:45;;;;;;;6.75;1.60;;;21.60;71.80;;;;;;6244740;23;20055;-89
2023/07/02 12:39:14;;;;;;;5.10;1.70;;;22.10;73.00;;;;;;6215115;23;20239;-92
2023/07/02 12:41:40;;;;;;;5.00;1.92;;;23.30;70.40;;;;;;6219375;23;20012;-90